createdAt,value
2023-10-11T00:01:02.821Z,75
2023-10-11T00:05:35.053Z,75
2023-10-11T00:10:35.726Z,75
2023-10-11T00:15:22.261Z,75
2023-10-11T00:20:21.911Z,76
2023-10-11T00:25:22.048Z,76
2023-10-11T00:30:21.422Z,76
2023-10-11T00:35:21.501Z,76
2023-10-11T00:40:21.585Z,76
2023-10-11T00:45:21.391Z,77
2023-10-11T00:50:21.372Z,76
2023-10-11T00:55:18.689Z,76
2023-10-11T00:59:39.266Z,76
2023-10-11T01:04:39.361Z,76
2023-10-11T01:09:39.386Z,76
2023-10-11T01:14:38.955Z,76
2023-10-11T01:19:38.747Z,76
2023-10-11T01:24:39.105Z,77
2023-10-11T01:29:38.867Z,77
2023-10-11T01:34:39.894Z,77
2023-10-11T01:39:37.205Z,77
2023-10-11T01:44:36.941Z,77
2023-10-11T01:49:37.422Z,77
2023-10-11T01:54:37.288Z,78
2023-10-11T01:59:36.319Z,78
2023-10-11T02:04:37.000Z,79
2023-10-11T02:09:38.915Z,80
2023-10-11T02:14:34.855Z,80
2023-10-11T02:19:35.413Z,80
2023-10-11T02:24:35.634Z,80
2023-10-11T02:29:35.314Z,81
2023-10-11T02:34:35.746Z,81
2023-10-11T02:39:35.819Z,81
2023-10-11T02:44:22.111Z,81
2023-10-11T02:49:21.462Z,81
2023-10-11T02:54:21.340Z,81
2023-10-11T02:59:04.670Z,82
2023-10-11T03:04:04.870Z,82
2023-10-11T03:09:04.341Z,82
2023-10-11T03:14:04.294Z,81
2023-10-11T03:19:04.343Z,81
2023-10-11T03:24:01.977Z,82
2023-10-11T03:29:01.075Z,82
2023-10-11T03:34:00.817Z,82
2023-10-11T03:39:01.040Z,81
2023-10-11T03:44:00.207Z,81
2023-10-11T03:49:00.302Z,81
2023-10-11T03:54:00.636Z,81
2023-10-11T03:59:00.247Z,81
2023-10-11T04:04:01.492Z,81
2023-10-11T04:08:57.642Z,81
2023-10-11T04:13:57.085Z,82
2023-10-11T04:18:57.006Z,82
2023-10-11T04:23:57.366Z,82
2023-10-11T04:28:56.864Z,81
2023-10-11T04:33:57.056Z,81
2023-10-11T04:38:56.430Z,81
2023-10-11T04:43:56.357Z,81
2023-10-11T04:48:54.883Z,82
2023-10-11T04:53:55.391Z,81
2023-10-11T04:58:54.978Z,81
2023-10-11T05:00:56.936Z,81
2023-10-11T05:05:17.326Z,81
2023-10-11T05:10:17.457Z,81
2023-10-11T05:15:19.964Z,82
2023-10-11T05:20:16.858Z,82
2023-10-11T05:25:15.444Z,82
2023-10-11T05:30:15.774Z,82
2023-10-11T05:35:15.325Z,82
2023-10-11T05:40:15.462Z,83
2023-10-11T05:45:14.861Z,83
2023-10-11T05:50:14.644Z,83
2023-10-11T05:55:14.981Z,83
2023-10-11T05:59:37.808Z,83
2023-10-11T06:04:37.890Z,83
2023-10-11T06:09:35.662Z,81
2023-10-11T06:14:34.900Z,80
2023-10-11T06:19:34.961Z,79
2023-10-11T06:24:35.102Z,78
2023-10-11T06:29:35.188Z,77
2023-10-11T06:34:35.589Z,76
2023-10-11T06:39:35.435Z,75
2023-10-11T06:44:35.477Z,74
2023-10-11T06:49:33.453Z,74
2023-10-11T06:54:32.613Z,73
2023-10-11T06:59:21.513Z,72
2023-10-11T07:04:22.092Z,72
2023-10-11T07:09:21.861Z,72
2023-10-11T07:14:21.948Z,70
2023-10-11T07:19:22.370Z,69
2023-10-11T07:24:22.519Z,69
2023-10-11T07:29:23.982Z,68
2023-10-11T07:34:20.237Z,67
2023-10-11T07:39:19.919Z,66
2023-10-11T07:44:19.617Z,65
2023-10-11T07:49:19.981Z,65
2023-10-11T07:54:19.991Z,62
2023-10-11T07:59:03.335Z,63
2023-10-11T08:04:03.123Z,63
2023-10-11T08:09:04.811Z,61
2023-10-11T08:14:01.737Z,62
2023-10-11T08:19:01.385Z,62
2023-10-11T08:24:00.769Z,61
2023-10-11T08:29:01.019Z,61
2023-10-11T08:34:00.497Z,60
2023-10-11T08:39:00.643Z,61
2023-10-11T08:44:00.124Z,61
2023-10-11T08:49:00.146Z,59
2023-10-11T08:53:58.692Z,57
2023-10-11T08:58:59.009Z,57
2023-10-11T09:03:58.931Z,57
2023-10-11T09:08:59.115Z,54
2023-10-11T09:13:58.594Z,53
2023-10-11T09:18:58.871Z,52
2023-10-11T09:23:58.956Z,52
2023-10-11T09:28:58.733Z,51
2023-10-11T09:33:59.101Z,50
2023-10-11T09:38:56.355Z,49
2023-10-11T09:43:55.785Z,49
2023-10-11T09:48:56.234Z,49
2023-10-11T09:53:55.521Z,49
2023-10-11T09:58:55.478Z,49
2023-10-11T10:00:57.864Z,49
2023-10-11T10:05:18.699Z,49
2023-10-11T10:10:18.852Z,49
2023-10-11T10:15:19.358Z,48
2023-10-11T10:20:15.551Z,47
2023-10-11T10:25:15.425Z,47
2023-10-11T10:30:15.566Z,46
2023-10-11T10:35:15.057Z,46
2023-10-11T10:40:15.244Z,44
2023-10-11T10:45:15.720Z,45
2023-10-11T10:50:15.329Z,43
2023-10-11T10:55:16.536Z,44
2023-10-11T10:59:37.261Z,43
2023-10-11T11:04:37.308Z,43
2023-10-11T11:09:36.484Z,44
2023-10-11T11:14:36.730Z,44
2023-10-11T11:19:37.356Z,43
2023-10-11T11:24:37.721Z,43
2023-10-11T11:29:36.868Z,43
2023-10-11T11:34:37.843Z,42
2023-10-11T11:39:34.317Z,42
2023-10-11T11:44:34.256Z,42
2023-10-11T11:49:33.907Z,42
2023-10-11T11:54:34.551Z,43
2023-10-11T11:59:20.098Z,43
2023-10-11T12:04:20.748Z,43
2023-10-11T12:09:19.804Z,43
2023-10-11T12:14:19.659Z,43
2023-10-11T12:19:18.124Z,43
2023-10-11T12:29:18.104Z,43
2023-10-11T12:34:18.497Z,41
2023-10-11T12:39:17.930Z,42
2023-10-11T12:44:17.903Z,42
2023-10-11T12:49:19.064Z,42
2023-10-11T12:54:17.881Z,41
2023-10-11T12:59:00.827Z,41
2023-10-11T13:01:07.099Z,41
2023-10-11T13:05:23.145Z,41
2023-10-11T13:10:34.113Z,41
2023-10-11T13:15:37.911Z,40
2023-10-11T13:20:35.106Z,40
2023-10-11T13:25:46.692Z,39
2023-10-11T13:30:34.523Z,40
2023-10-11T13:35:34.224Z,40
2023-10-11T13:40:33.959Z,39
2023-10-11T13:45:34.215Z,40
2023-10-11T13:50:23.166Z,41
2023-10-11T13:55:34.383Z,40
2023-10-11T13:59:57.620Z,39
2023-10-11T14:04:56.356Z,39
2023-10-11T14:09:56.776Z,39
2023-10-11T14:14:56.376Z,39
2023-10-11T14:19:56.646Z,38
2023-10-11T14:24:56.204Z,39
2023-10-11T14:29:55.973Z,39
2023-10-11T14:34:56.265Z,39
2023-10-11T14:39:56.406Z,38
2023-10-11T14:44:54.973Z,38
2023-10-11T14:49:55.189Z,38
2023-10-11T14:54:54.897Z,39
2023-10-11T14:59:34.816Z,39
2023-10-11T15:04:35.313Z,39
2023-10-11T15:14:36.214Z,39
2023-10-11T15:19:36.696Z,39
2023-10-11T15:29:34.303Z,39
2023-10-11T15:34:34.683Z,39
2023-10-11T15:44:34.636Z,40
2023-10-11T15:49:23.403Z,40
2023-10-11T15:59:03.417Z,40
2023-10-11T16:04:02.934Z,41
2023-10-11T16:14:02.112Z,42
2023-10-11T16:19:02.662Z,42
2023-10-11T16:29:01.545Z,44
2023-10-11T16:34:00.187Z,45
2023-10-11T16:43:59.763Z,46
2023-10-11T16:48:59.712Z,47
2023-10-11T16:58:58.773Z,48
2023-10-11T17:03:59.115Z,49
2023-10-11T17:13:58.539Z,51
2023-10-11T17:18:55.953Z,51
2023-10-11T17:28:54.768Z,51
2023-10-11T17:33:55.018Z,52
2023-10-11T17:43:54.676Z,54
2023-10-11T17:48:55.102Z,56
2023-10-11T17:58:52.469Z,57
2023-10-11T18:03:52.772Z,57
2023-10-11T18:08:52.602Z,57
2023-10-11T18:13:51.971Z,57
2023-10-11T18:18:51.837Z,57
2023-10-11T18:23:51.966Z,57
2023-10-11T18:28:51.677Z,57
2023-10-11T18:33:51.824Z,58
2023-10-11T18:38:49.074Z,58
2023-10-11T18:43:48.631Z,59
2023-10-11T18:48:48.211Z,59
2023-10-11T18:53:48.374Z,60
2023-10-11T18:58:47.969Z,61
2023-10-11T19:03:48.447Z,63
2023-10-11T19:08:48.289Z,65
2023-10-11T19:13:48.095Z,66
2023-10-11T19:18:49.133Z,67
2023-10-11T19:23:45.212Z,67
2023-10-11T19:28:44.750Z,67
2023-10-11T19:33:45.031Z,67
2023-10-11T19:38:44.691Z,68
2023-10-11T19:43:44.647Z,68
2023-10-11T19:48:45.009Z,67
2023-10-11T19:53:44.785Z,66
2023-10-11T19:58:45.800Z,65
2023-10-11T20:00:47.832Z,65
2023-10-11T20:05:06.937Z,65
2023-10-11T20:10:06.727Z,65
2023-10-11T20:15:07.001Z,65
2023-10-11T20:20:06.785Z,65
2023-10-11T20:25:07.147Z,65
2023-10-11T20:30:06.555Z,65
2023-10-11T20:35:06.397Z,65
2023-10-11T20:40:05.030Z,64
2023-10-11T20:45:05.238Z,65
2023-10-11T20:50:04.935Z,65
2023-10-11T20:55:04.700Z,65
2023-10-11T20:59:37.022Z,65
2023-10-11T21:04:37.377Z,65
2023-10-11T21:09:37.199Z,65
2023-10-11T21:14:35.464Z,66
2023-10-11T21:19:35.398Z,66
2023-10-11T21:24:35.387Z,66
2023-10-11T21:29:35.335Z,66
2023-10-11T21:34:35.590Z,66
2023-10-11T21:39:35.746Z,66
2023-10-11T21:44:36.526Z,67
2023-10-11T21:49:21.747Z,67
2023-10-11T21:54:21.409Z,67
2023-10-11T21:59:14.318Z,66
2023-10-11T22:04:14.775Z,66
2023-10-11T22:09:14.583Z,66
2023-10-11T22:14:14.668Z,66
2023-10-11T22:19:15.153Z,66
2023-10-11T22:24:14.043Z,66
2023-10-11T22:29:12.554Z,66
2023-10-11T22:34:18.211Z,66
2023-10-11T22:39:12.580Z,65
2023-10-11T22:44:12.702Z,64
2023-10-11T22:49:12.700Z,64
2023-10-11T22:54:16.892Z,63
2023-10-11T22:59:12.227Z,62
2023-10-11T23:04:12.314Z,62
2023-10-11T23:09:10.701Z,61
2023-10-11T23:14:11.021Z,61
2023-10-11T23:19:10.629Z,60
2023-10-11T23:24:10.958Z,60
2023-10-11T23:29:10.431Z,60
2023-10-11T23:34:10.452Z,61
2023-10-11T23:39:10.681Z,61
2023-10-11T23:44:10.255Z,61
2023-10-11T23:49:10.327Z,62
2023-10-11T23:54:07.871Z,62
2023-10-11T23:59:05.747Z,64
